Results: 2018 Fyn ITU Duathlon World Championships | 60-64 Male AG Sprint
Fyn, Denmark • 08 Jul, 2018
Pos First Name Last Name YOB Country Start
Num
Time Run T1 Bike T2 Run
1 Heinrich Wilmink 1955 GER 2346 01:04:46 00:20:12 00:01:28 00:31:25 00:02:03 00:09:38
2 Gerhard Schlüter 1955 GER 2341 01:06:57 00:20:23 00:01:45 00:33:17 00:02:11 00:09:21
3 Phil Hurr 1956 GBR 2337 01:07:00 00:20:22 00:01:33 00:33:23 00:02:11 00:09:31
4 Pierre Faucheur 1955 FRA 2331 01:07:45 00:20:30 00:01:36 00:33:18 00:02:11 00:10:10
5 Bernardo Jareño Rodriguez 1958 ESP 2330 01:09:29 00:20:13 00:01:57 00:34:53 00:02:56 00:09:30
6 Hinnerk Timme 1955 GER 2344 01:10:01 00:21:28 00:01:45 00:35:01 00:02:12 00:09:35
7 Karsten Olsen 1956 DEN 2328 01:10:03 00:21:40 00:01:28 00:34:18 00:02:11 00:10:26
8 Geoff Brewster 1958 GBR 2334 01:10:17 00:21:23 00:01:53 00:35:02 00:02:18 00:09:41
9 John Waguespack 1958 USA 2362 01:10:44 00:21:46 00:01:59 00:34:34 00:02:24 00:10:01
10 Iskandar Shakhov 1955 RUS 2350 01:11:06 00:21:42 00:01:43 00:34:56 00:02:19 00:10:26
11 Philip Jones 1955 GBR 2338 01:11:13 00:21:43 00:01:59 00:34:45 00:02:26 00:10:20
12 Louis Almekinders 1957 USA 2351 01:11:35 00:22:34 00:01:43 00:34:17 00:02:36 00:10:25
13 Andrew Billington 1958 GBR 2333 01:12:00 00:22:07 00:02:02 00:34:24 00:02:48 00:10:39
14 Steven Wade 1958 USA 2361 01:13:31 00:23:08 00:01:55 00:35:29 00:02:31 00:10:28
15 David Lasorsa 1957 USA 2355 01:13:46 00:23:11 00:01:43 00:35:40 00:02:22 00:10:50
16 Barry Siff 1955 USA 2359 01:13:57 00:23:49 00:01:44 00:35:16 00:02:19 00:10:49
17 Alan Mcintyre 1955 NZL 2349 01:14:22 00:23:28 00:01:58 00:35:40 00:02:37 00:10:39
18 William Gunter 1958 USA 2354 01:14:26 00:24:10 00:02:28 00:34:10 00:02:55 00:10:43
19 Gerardo Corbato 1956 USA 2352 01:15:38 00:24:34 00:01:55 00:34:21 00:02:52 00:11:56
20 Augusto Naim Arellano Hernandez 1954 MEX 2348 01:16:03 00:21:48 00:01:45 00:39:51 00:02:28 00:10:11
21 Richard Hardy 1954 GBR 2335 01:16:31 00:25:31 00:01:42 00:35:31 00:02:25 00:11:22
22 Hans Heinz Schumacher 1954 GER 2342 01:16:48 00:25:06 00:02:15 00:35:30 00:02:39 00:11:18
23 Ian Selmes 1954 GBR 2339 01:16:49 00:23:03 00:01:59 00:38:41 00:02:36 00:10:30
24 Alastair Benbow 1958 GBR 2332 01:18:34 00:23:31 00:01:45 00:39:38 00:02:39 00:11:01
25 Jerry Spiva 1958 USA 2360 01:20:19 00:23:49 00:01:55 00:39:44 00:03:13 00:11:38
26 Frank Schøler 1958 DEN 2329 01:21:10 00:22:45 00:01:52 00:33:56 00:02:36 00:20:01
27 Lamar Sepulveda 1957 USA 2358 01:21:12 00:24:59 00:01:43 00:39:16 00:02:32 00:12:42
28 Peter Thun 1956 GER 2343 01:22:56 00:25:13 00:02:33 00:39:23 00:03:25 00:12:22
29 Guy Creber 1958 AUS 2363 01:23:59 00:27:04 00:02:14 00:38:54 00:02:51 00:12:56
30 Eberhard Weber 1954 GER 2345 01:25:14 00:31:27 00:01:38 00:38:42 00:02:19 00:11:08
31 Garry Preston 1955 AUS 2364 01:27:55 00:28:02 00:02:23 00:41:27 00:03:26 00:12:37
32 Warren Elvers 1955 USA 2353 01:42:23 00:41:28 00:02:27 00:40:53 00:02:53 00:14:42
33 Brian Mcgovern 1954 USA 2356 01:45:39 00:35:03 00:02:52 00:46:40 00:04:06 00:16:58
Program notes:

Technical Delegate: Duncan Hough/GBR. Head Referee: Ulf Schuetze/CAN.
Competition Jury: Duncan Hough/GBR, Brian Hinton/AUS, Morten Fenger/DEN.
Distances: Run 5.5km (3 laps), Bike 19.9km (1 lap), Run 2.5km (1 lap)
Air temperature: 16.6C; Humidity: 52.7%